Time;durP1;ratioP1;P1;durP2;ratioP2;P2;SDS_P1;SDS_P2;PMS_P1;PMS_P2;Temp;Humidity;BMP_temperature;BMP_pressure;BME280_temperature;BME280_humidity;BME280_pressure;Samples;Min_cycle;Max_cycle;Signal;HPM_P1;HPM_P2
2020/12/31 00:00:53;;;;;;;0.38;0.38;;;6.60;99.90;;;;;;5036796;28;20615;-77
2020/12/31 00:03:19;;;;;;;0.95;0.90;;;6.50;99.90;;;;;;5036699;28;20199;-78
2020/12/31 00:05:45;;;;;;;0.43;0.43;;;6.50;99.90;;;;;;5036591;28;20651;-77
2020/12/31 00:08:10;;;;;;;14.15;1.13;;;6.40;99.90;;;;;;5036507;28;20160;-77
2020/12/31 00:10:36;;;;;;;0.70;0.70;;;6.30;99.90;;;;;;5018716;28;20179;-76
2020/12/31 00:13:01;;;;;;;0.40;0.40;;;6.30;99.90;;;;;;5036494;28;20207;-77
2020/12/31 00:15:27;;;;;;;0.70;0.70;;;6.40;99.90;;;;;;5036339;28;20647;-76
2020/12/31 00:17:52;;;;;;;0.40;0.40;;;6.60;99.90;;;;;;5036465;28;20160;-78
2020/12/31 00:20:18;;;;;;;0.85;0.85;;;6.70;99.90;;;;;;5018592;28;20182;-78
2020/12/31 00:22:44;;;;;;;0.20;0.20;;;6.70;99.90;;;;;;5036248;28;20250;-78
2020/12/31 00:25:10;;;;;;;0.63;0.50;;;6.80;99.90;;;;;;5036439;28;20184;-77
2020/12/31 00:27:36;;;;;;;1.98;1.05;;;6.90;99.90;;;;;;5036426;28;20563;-76
2020/12/31 00:30:09;;;;;;;1.17;1.17;;;6.70;99.90;;;;;;5036338;28;20168;-76
2020/12/31 00:32:35;;;;;;;0.75;0.75;;;6.60;99.90;;;;;;5036154;28;20192;-77
2020/12/31 00:35:02;;;;;;;0.50;0.40;;;6.60;99.90;;;;;;5036188;28;20192;-75
2020/12/31 00:37:33;;;;;;;0.93;0.93;;;6.80;99.90;;;;;;5036227;28;20239;-78
2020/12/31 07:33:13;;;;;;;0.20;0.20;;;4.90;99.90;;;;;;5032389;28;20310;-74
2020/12/31 07:35:54;;;;;;;0.50;0.50;;;5.00;99.90;;;;;;5014922;28;20647;-75
2020/12/31 07:38:20;;;;;;;0.20;0.20;;;5.00;99.90;;;;;;5015697;28;20233;-84
2020/12/31 07:40:50;;;;;;;0.20;0.20;;;5.10;99.90;;;;;;5015138;28;20164;-83
2020/12/31 07:43:27;;;;;;;0.90;0.82;;;5.20;99.90;;;;;;5015685;28;20184;-83
2020/12/31 07:45:55;;;;;;;0.40;0.40;;;5.50;99.90;;;;;;5014934;28;20188;-77
2020/12/31 07:48:23;;;;;;;0.35;0.35;;;5.70;99.90;;;;;;5032723;28;20164;-77
2020/12/31 07:50:56;;;;;;;0.20;0.20;;;5.70;99.90;;;;;;5032711;28;20160;-76
2020/12/31 07:53:22;;;;;;;0.30;0.30;;;5.70;99.90;;;;;;5032619;28;20199;-77
2020/12/31 07:55:49;;;;;;;8.13;0.88;;;5.90;99.90;;;;;;5032701;28;20184;-77
2020/12/31 07:58:19;;;;;;;2.10;0.57;;;5.70;99.90;;;;;;5032605;28;20714;-78
2020/12/31 08:00:45;;;;;;;0.13;0.13;;;5.80;99.90;;;;;;5032685;28;20163;-77
2020/12/31 08:03:12;;;;;;;0.52;0.52;;;5.70;99.90;;;;;;5036802;28;20518;-78
2020/12/31 08:05:38;;;;;;;2.63;0.55;;;5.50;99.90;;;;;;5036646;28;20582;-77
2020/12/31 08:08:04;;;;;;;0.30;0.30;;;5.20;99.90;;;;;;5036517;28;20230;-76
2020/12/31 08:10:35;;;;;;;1.00;0.95;;;4.90;99.90;;;;;;5036289;28;20164;-77
2020/12/31 08:13:03;;;;;;;0.20;0.20;;;4.90;99.90;;;;;;5036580;28;20522;-76
2020/12/31 08:15:29;;;;;;;0.47;0.47;;;4.80;99.90;;;;;;5034571;28;20203;-79
2020/12/31 08:17:57;;;;;;;0.60;0.60;;;4.80;99.90;;;;;;5036572;28;20168;-78
2020/12/31 08:20:26;;;;;;;0.40;0.40;;;4.90;99.90;;;;;;5036247;28;20160;-78
2020/12/31 08:22:58;;;;;;;0.38;0.38;;;5.10;99.90;;;;;;5036446;28;20238;-77
2020/12/31 08:25:26;;;;;;;3.00;1.25;;;5.10;99.90;;;;;;5036047;28;20190;-77
2020/12/31 08:27:55;;;;;;;0.63;0.63;;;5.10;99.90;;;;;;5036389;28;20504;-77
2020/12/31 08:30:21;;;;;;;0.52;0.52;;;5.20;99.90;;;;;;5018785;28;20517;-82
2020/12/31 08:32:50;;;;;;;0.20;0.20;;;5.50;99.90;;;;;;5018128;28;20223;-82
2020/12/31 08:35:27;;;;;;;2.53;0.75;;;5.70;99.90;;;;;;5036104;28;20576;-83
2020/12/31 08:38:00;;;;;;;0.25;0.25;;;5.90;99.90;;;;;;5035995;28;20164;-78
2020/12/31 08:40:27;;;;;;;0.82;0.82;;;5.90;99.90;;;;;;5036277;28;20172;-77
2020/12/31 08:42:53;;;;;;;2.45;0.95;;;6.10;99.90;;;;;;5035627;28;20180;-77
2020/12/31 08:45:30;;;;;;;0.57;0.57;;;6.00;99.90;;;;;;5035585;28;20188;-77
2020/12/31 08:48:12;;;;;;;0.47;0.47;;;6.00;99.90;;;;;;5035995;28;20163;-76
2020/12/31 08:50:38;;;;;;;0.50;0.50;;;6.10;99.90;;;;;;5018100;28;20565;-77
2020/12/31 08:53:04;;;;;;;0.22;0.22;;;6.20;99.90;;;;;;5035601;28;20253;-77
2020/12/31 08:55:33;;;;;;;0.80;0.80;;;6.30;99.90;;;;;;5035400;28;20196;-77
2020/12/31 08:58:16;;;;;;;0.20;0.20;;;6.20;99.90;;;;;;5035713;28;20152;-77
2020/12/31 09:00:42;;;;;;;0.55;0.55;;;6.10;99.90;;;;;;5017820;28;20166;-77
2020/12/31 09:03:08;;;;;;;0.32;0.32;;;6.00;99.90;;;;;;5035253;28;20168;-77
2020/12/31 09:05:34;;;;;;;0.20;0.20;;;6.10;99.90;;;;;;5035356;28;20187;-77
2020/12/31 09:08:04;;;;;;;0.50;0.40;;;6.10;99.90;;;;;;5035448;28;20681;-76
2020/12/31 09:10:32;;;;;;;0.35;0.35;;;6.20;99.90;;;;;;5035651;28;20203;-77
2020/12/31 09:12:58;;;;;;;0.35;0.35;;;6.30;99.90;;;;;;5016574;28;20211;-77
2020/12/31 09:15:24;;;;;;;0.30;0.30;;;6.20;99.90;;;;;;5034897;28;20599;-76
2020/12/31 09:17:49;;;;;;;0.57;0.57;;;5.90;99.90;;;;;;5017412;28;20186;-75
2020/12/31 09:20:21;;;;;;;0.65;0.65;;;6.10;99.90;;;;;;5035193;28;20172;-76
2020/12/31 09:22:46;;;;;;;0.40;0.40;;;6.10;99.90;;;;;;5017424;28;20164;-77
2020/12/31 09:25:13;;;;;;;19.23;1.23;;;5.90;99.90;;;;;;5034869;28;20196;-75
2020/12/31 09:27:39;;;;;;;1.10;1.00;;;5.90;99.90;;;;;;5034971;28;20604;-76
2020/12/31 09:30:11;;;;;;;0.75;0.75;;;5.60;99.90;;;;;;5034969;28;20525;-77
2020/12/31 09:32:37;;;;;;;0.30;0.30;;;5.70;99.90;;;;;;5016891;28;20243;-76
2020/12/31 09:35:07;;;;;;;0.30;0.30;;;6.00;99.90;;;;;;5035029;28;20541;-75
2020/12/31 09:37:46;;;;;;;0.45;0.45;;;6.20;99.90;;;;;;5016707;28;20164;-76
2020/12/31 09:40:12;;;;;;;0.73;0.73;;;6.40;99.90;;;;;;5034765;28;20190;-76
2020/12/31 09:42:38;;;;;;;0.70;0.70;;;6.30;99.90;;;;;;5034583;28;20172;-75
2020/12/31 09:45:04;;;;;;;0.40;0.40;;;6.00;99.90;;;;;;5034665;28;20184;-74
2020/12/31 09:47:31;;;;;;;0.28;0.28;;;6.00;99.90;;;;;;5016504;28;20168;-79
2020/12/31 09:49:56;;;;;;;0.20;0.20;;;6.30;99.90;;;;;;5016741;28;20222;-79
2020/12/31 09:52:22;;;;;;;0.38;0.38;;;6.40;99.90;;;;;;5034525;28;20597;-80
2020/12/31 09:54:47;;;;;;;0.95;0.60;;;6.50;99.90;;;;;;5016186;28;20188;-75
2020/12/31 09:57:13;;;;;;;0.15;0.15;;;6.50;99.90;;;;;;5034231;28;20174;-74
2020/12/31 09:59:38;;;;;;;0.47;0.47;;;6.40;99.90;;;;;;5034131;28;20305;-75
2020/12/31 10:02:04;;;;;;;0.20;0.20;;;6.50;99.90;;;;;;5034237;28;20186;-76
2020/12/31 10:04:29;;;;;;;0.32;0.32;;;6.50;99.90;;;;;;5034178;28;20208;-76
2020/12/31 10:06:55;;;;;;;0.20;0.20;;;6.70;99.90;;;;;;5034282;28;20225;-76
2020/12/31 10:09:20;;;;;;;0.80;0.80;;;6.70;99.90;;;;;;5034265;28;20175;-75
2020/12/31 10:11:48;;;;;;;0.43;0.43;;;6.60;99.90;;;;;;5033888;28;20178;-77
2020/12/31 10:14:14;;;;;;;1.02;0.98;;;6.50;99.90;;;;;;5033935;28;20199;-76
2020/12/31 10:16:40;;;;;;;0.40;0.40;;;6.80;99.90;;;;;;5034146;28;20176;-77
2020/12/31 10:19:05;;;;;;;0.30;0.30;;;6.80;99.90;;;;;;5034028;28;20171;-75
2020/12/31 10:21:31;;;;;;;0.20;0.20;;;6.80;99.90;;;;;;5034027;28;20193;-76
2020/12/31 10:23:57;;;;;;;1.38;0.50;;;6.70;99.90;;;;;;5033360;28;20172;-76
2020/12/31 10:26:22;;;;;;;0.43;0.43;;;6.20;99.90;;;;;;5033892;28;20219;-79
2020/12/31 10:28:48;;;;;;;0.20;0.20;;;6.20;99.90;;;;;;5016243;28;20172;-78
2020/12/31 10:31:13;;;;;;;0.38;0.38;;;6.40;99.90;;;;;;5016014;28;20219;-78
2020/12/31 10:33:39;;;;;;;0.40;0.40;;;6.20;99.90;;;;;;5015794;28;20203;-76
2020/12/31 10:36:04;;;;;;;0.30;0.30;;;6.20;99.90;;;;;;5033593;28;20539;-78
2020/12/31 10:38:30;;;;;;;1.08;0.50;;;6.30;99.90;;;;;;5033753;28;20171;-77
2020/12/31 10:40:55;;;;;;;5.18;1.15;;;6.50;99.90;;;;;;5034049;28;20170;-78
2020/12/31 10:43:21;;;;;;;0.60;0.60;;;6.40;99.90;;;;;;5015788;28;20180;-79
2020/12/31 10:45:47;;;;;;;0.20;0.20;;;6.40;99.90;;;;;;5015945;28;20190;-83
2020/12/31 10:48:13;;;;;;;0.30;0.30;;;6.30;99.90;;;;;;5015981;28;20229;-76
2020/12/31 10:50:39;;;;;;;0.30;0.30;;;6.30;99.90;;;;;;5033382;28;20169;-76
2020/12/31 10:53:04;;;;;;;0.30;0.30;;;6.30;99.90;;;;;;5015428;28;20215;-77
2020/12/31 10:55:30;;;;;;;1.23;1.08;;;6.50;99.90;;;;;;5033226;28;20673;-78
2020/12/31 10:57:56;;;;;;;0.28;0.28;;;6.50;99.90;;;;;;5033256;28;20561;-77
2020/12/31 11:00:21;;;;;;;0.20;0.20;;;6.50;99.90;;;;;;5015425;28;20235;-78
2020/12/31 11:02:47;;;;;;;0.70;0.70;;;6.70;99.90;;;;;;5032825;28;20172;-78
2020/12/31 11:05:13;;;;;;;0.52;0.52;;;6.50;99.90;;;;;;5033087;28;20183;-78
2020/12/31 11:07:39;;;;;;;1.27;0.63;;;6.70;99.90;;;;;;5033522;28;20201;-85
2020/12/31 11:10:05;;;;;;;0.55;0.55;;;6.70;99.90;;;;;;5015966;28;20168;-77
2020/12/31 11:12:31;;;;;;;0.82;0.82;;;6.30;99.90;;;;;;5015313;28;20198;-76
2020/12/31 11:14:57;;;;;;;1.23;1.13;;;6.30;99.90;;;;;;5032661;28;20185;-77
2020/12/31 11:17:24;;;;;;;0.73;0.55;;;6.40;99.90;;;;;;5015181;28;20171;-76
2020/12/31 11:19:49;;;;;;;0.25;0.25;;;6.70;99.90;;;;;;5032962;28;20172;-77
2020/12/31 11:22:15;;;;;;;1.77;1.20;;;6.60;99.90;;;;;;5015216;28;20170;-77
2020/12/31 11:24:40;;;;;;;0.20;0.20;;;6.60;99.90;;;;;;5033850;28;20202;-79
2020/12/31 11:27:06;;;;;;;0.35;0.35;;;6.40;99.90;;;;;;5032723;28;20174;-77
2020/12/31 11:29:32;;;;;;;0.73;0.73;;;6.20;99.90;;;;;;5032716;28;20247;-77
2020/12/31 11:32:01;;;;;;;1.75;0.88;;;6.20;99.90;;;;;;5032578;28;20262;-77
2020/12/31 11:34:27;;;;;;;0.20;0.20;;;6.40;99.90;;;;;;5032826;28;20207;-77
2020/12/31 11:36:53;;;;;;;0.55;0.55;;;6.30;99.90;;;;;;5032232;28;20657;-76
2020/12/31 11:39:19;;;;;;;0.30;0.30;;;6.40;99.90;;;;;;5032969;28;20179;-77
2020/12/31 11:41:45;;;;;;;1.35;1.35;;;6.40;99.90;;;;;;5032757;28;20669;-77
2020/12/31 11:44:10;;;;;;;1.33;1.15;;;6.50;99.90;;;;;;5014986;28;20194;-77
2020/12/31 11:46:36;;;;;;;0.20;0.20;;;6.70;99.90;;;;;;5014901;28;20168;-77
2020/12/31 11:49:01;;;;;;;0.40;0.40;;;6.80;99.90;;;;;;5015037;28;20715;-77
2020/12/31 11:51:27;;;;;;;1.08;1.00;;;6.50;99.90;;;;;;5032389;28;20168;-77
2020/12/31 11:53:53;;;;;;;1.38;0.90;;;6.30;99.90;;;;;;5031513;28;20662;-78
2020/12/31 11:56:18;;;;;;;0.20;0.20;;;6.30;99.90;;;;;;5032846;28;20631;-77
2020/12/31 11:58:46;;;;;;;0.43;0.43;;;6.50;99.90;;;;;;5032550;28;20172;-80
2020/12/31 12:01:15;;;;;;;0.25;0.22;;;6.60;99.90;;;;;;5032399;28;20194;-79
2020/12/31 12:03:41;;;;;;;0.25;0.25;;;6.60;99.90;;;;;;5032447;28;20206;-80
2020/12/31 12:06:07;;;;;;;0.57;0.57;;;6.80;99.90;;;;;;5032129;28;20204;-77
2020/12/31 12:08:33;;;;;;;1.02;1.02;;;7.00;99.90;;;;;;5032409;28;20202;-79
2020/12/31 12:10:58;;;;;;;0.35;0.35;;;7.00;99.90;;;;;;5032993;28;20599;-78
2020/12/31 12:13:25;;;;;;;0.20;0.20;;;6.80;99.90;;;;;;5032423;28;20590;-78
2020/12/31 12:15:51;;;;;;;1.08;1.08;;;7.00;99.90;;;;;;5032457;28;20209;-79
2020/12/31 12:18:17;;;;;;;1.42;1.10;;;6.90;99.90;;;;;;5032525;28;20192;-79
2020/12/31 12:20:43;;;;;;;0.93;0.93;;;6.80;99.90;;;;;;5014964;28;20172;-79
2020/12/31 12:23:08;;;;;;;1.48;0.98;;;7.20;99.90;;;;;;5032317;28;20160;-80
2020/12/31 12:25:34;;;;;;;0.30;0.30;;;7.40;99.90;;;;;;5014078;28;20190;-76
2020/12/31 12:27:59;;;;;;;0.52;0.52;;;7.30;99.90;;;;;;5029832;28;20199;-76
2020/12/31 12:30:25;;;;;;;0.80;0.80;;;7.40;99.90;;;;;;5031910;28;20160;-76
2020/12/31 12:32:51;;;;;;;0.52;0.52;;;7.40;99.90;;;;;;5031993;28;20226;-75
2020/12/31 12:35:16;;;;;;;1.00;1.00;;;7.40;99.90;;;;;;5032275;28;20271;-76
2020/12/31 12:37:42;;;;;;;0.73;0.73;;;7.50;99.90;;;;;;5031783;28;20573;-78
2020/12/31 12:40:09;;;;;;;0.70;0.70;;;7.30;99.90;;;;;;5032307;28;20168;-77
2020/12/31 12:42:37;;;;;;;0.50;0.50;;;7.20;99.90;;;;;;5031966;28;20199;-76
2020/12/31 12:45:05;;;;;;;0.85;0.60;;;7.20;99.90;;;;;;5032118;28;20214;-77
2020/12/31 12:47:35;;;;;;;0.80;0.80;;;7.40;99.90;;;;;;5032061;28;20168;-75
2020/12/31 12:50:02;;;;;;;0.88;0.88;;;7.50;99.90;;;;;;5035522;28;20196;-75
2020/12/31 12:52:28;;;;;;;0.50;0.50;;;7.50;99.90;;;;;;5035288;28;20674;-77
2020/12/31 12:54:54;;;;;;;0.63;0.63;;;7.40;99.90;;;;;;5017357;28;20282;-78
2020/12/31 12:57:19;;;;;;;1.05;1.00;;;7.40;99.90;;;;;;5018002;28;20469;-77
2020/12/31 12:59:45;;;;;;;0.60;0.60;;;7.40;99.90;;;;;;5035220;28;20203;-77
2020/12/31 13:02:10;;;;;;;1.92;1.00;;;7.00;99.90;;;;;;5035242;28;20164;-78
2020/12/31 13:04:36;;;;;;;1.02;1.02;;;6.80;99.90;;;;;;5032859;28;20203;-79
2020/12/31 13:07:01;;;;;;;1.23;1.23;;;6.90;99.90;;;;;;5022095;28;20597;-78
2020/12/31 13:09:27;;;;;;;1.55;1.50;;;6.80;99.90;;;;;;5035157;28;20164;-76
2020/12/31 13:11:58;;;;;;;2.45;0.90;;;6.80;99.90;;;;;;5034730;28;20160;-77
2020/12/31 13:14:23;;;;;;;1.67;1.58;;;7.00;99.90;;;;;;5034870;28;20261;-78
2020/12/31 13:16:55;;;;;;;0.68;0.68;;;7.00;99.90;;;;;;5034819;28;20520;-79
2020/12/31 13:19:22;;;;;;;1.27;1.15;;;7.30;99.90;;;;;;5029139;28;20179;-77
2020/12/31 13:21:52;;;;;;;1.17;0.85;;;7.50;99.90;;;;;;5031343;28;20176;-76
2020/12/31 13:24:18;;;;;;;6.75;2.75;;;7.50;99.90;;;;;;5033054;28;20662;-76
2020/12/31 13:26:43;;;;;;;5.43;2.30;;;7.40;99.90;;;;;;5018176;28;20203;-77
2020/12/31 13:29:09;;;;;;;1.02;1.02;;;7.30;99.90;;;;;;5016769;28;20164;-76
2020/12/31 13:31:36;;;;;;;5.00;1.55;;;7.20;99.90;;;;;;5016833;28;20220;-75
2020/12/31 13:34:01;;;;;;;4.32;1.33;;;6.80;99.90;;;;;;5029156;28;20222;-77
2020/12/31 13:36:27;;;;;;;7.68;1.77;;;6.40;99.90;;;;;;5030902;28;20168;-79
2020/12/31 13:38:54;;;;;;;0.80;0.80;;;6.40;99.90;;;;;;5033643;28;20171;-78
2020/12/31 13:41:20;;;;;;;0.45;0.45;;;6.60;99.90;;;;;;5032961;28;20510;-79
2020/12/31 13:43:46;;;;;;;0.82;0.82;;;6.60;99.90;;;;;;5031699;28;20537;-78
2020/12/31 13:46:14;;;;;;;0.60;0.60;;;6.60;99.90;;;;;;5030539;28;20204;-77
2020/12/31 13:48:39;;;;;;;1.92;1.80;;;6.70;99.90;;;;;;5014639;28;20187;-77
2020/12/31 13:51:05;;;;;;;0.52;0.52;;;6.80;99.90;;;;;;5033339;28;20171;-78
2020/12/31 13:53:31;;;;;;;3.55;2.42;;;6.90;99.90;;;;;;5033321;28;20210;-77
2020/12/31 13:55:56;;;;;;;2.83;1.83;;;7.20;99.90;;;;;;5032651;28;20191;-78
2020/12/31 13:58:22;;;;;;;1.95;1.67;;;7.10;99.90;;;;;;5032548;28;20620;-77
2020/12/31 14:00:49;;;;;;;1.40;1.30;;;7.20;99.90;;;;;;5031433;28;20168;-78
2020/12/31 14:03:15;;;;;;;1.80;1.67;;;7.30;99.90;;;;;;5032381;28;20183;-78
2020/12/31 14:05:41;;;;;;;1.20;1.20;;;7.40;99.90;;;;;;5015397;28;20191;-76
2020/12/31 14:08:06;;;;;;;3.78;2.10;;;7.20;99.90;;;;;;5032755;28;20746;-76
2020/12/31 14:10:32;;;;;;;2.13;1.52;;;7.40;99.90;;;;;;5015407;28;20650;-76
2020/12/31 14:12:58;;;;;;;1.45;1.40;;;7.30;99.90;;;;;;5032303;28;20204;-75
2020/12/31 14:15:23;;;;;;;1.48;1.38;;;7.40;99.90;;;;;;5032398;28;20325;-76
2020/12/31 14:17:49;;;;;;;1.95;1.73;;;7.30;99.90;;;;;;5029973;28;20206;-77
2020/12/31 14:20:14;;;;;;;2.00;1.90;;;7.50;99.90;;;;;;5032312;28;20175;-77
2020/12/31 14:22:41;;;;;;;0.68;0.68;;;7.70;99.90;;;;;;5032551;28;20176;-77
2020/12/31 14:25:07;;;;;;;1.42;1.25;;;7.80;99.90;;;;;;5033456;28;20184;-78
2020/12/31 14:27:33;;;;;;;1.02;1.02;;;7.90;99.90;;;;;;5031778;28;20635;-78
2020/12/31 14:29:58;;;;;;;1.42;1.33;;;7.90;99.90;;;;;;5032227;28;20180;-78
2020/12/31 14:32:24;;;;;;;1.33;1.25;;;7.70;99.90;;;;;;5031714;28;20223;-78
2020/12/31 14:34:51;;;;;;;0.85;0.85;;;7.60;99.90;;;;;;5032494;28;20183;-77
2020/12/31 14:37:17;;;;;;;1.70;1.60;;;7.50;99.90;;;;;;5032257;28;20172;-77
2020/12/31 14:39:43;;;;;;;3.28;1.05;;;7.40;99.90;;;;;;5014712;28;20526;-81
2020/12/31 14:42:09;;;;;;;0.73;0.73;;;7.50;99.90;;;;;;5032202;28;20174;-81
2020/12/31 14:44:35;;;;;;;1.13;1.08;;;7.70;99.90;;;;;;5032074;28;20195;-81
2020/12/31 14:47:00;;;;;;;0.90;0.90;;;7.70;99.90;;;;;;5032227;28;20184;-77
2020/12/31 14:49:26;;;;;;;4.03;1.35;;;7.60;99.90;;;;;;5014604;28;20178;-77
2020/12/31 14:51:51;;;;;;;4.68;1.38;;;7.60;99.90;;;;;;5031936;28;20156;-77
2020/12/31 14:54:18;;;;;;;1.35;1.25;;;7.80;99.90;;;;;;5014370;28;20215;-77
2020/12/31 14:56:44;;;;;;;1.42;1.33;;;7.60;99.90;;;;;;5032139;28;20665;-76
2020/12/31 14:59:09;;;;;;;0.95;0.95;;;7.60;99.90;;;;;;5031851;28;20175;-76
2020/12/31 15:01:35;;;;;;;2.83;1.67;;;7.70;99.90;;;;;;5014794;28;20163;-77
2020/12/31 15:04:01;;;;;;;0.40;0.40;;;7.70;99.90;;;;;;5031304;28;20191;-78
2020/12/31 15:06:32;;;;;;;1.67;1.50;;;7.50;99.90;;;;;;5031792;28;20270;-77
2020/12/31 15:08:58;;;;;;;3.75;1.42;;;7.50;99.90;;;;;;5031396;28;20156;-75
2020/12/31 15:11:24;;;;;;;2.03;1.88;;;7.50;99.90;;;;;;5031524;28;20168;-76
2020/12/31 15:13:49;;;;;;;2.15;1.98;;;7.60;99.90;;;;;;5031263;28;20196;-77
2020/12/31 15:16:15;;;;;;;0.80;0.80;;;7.60;99.90;;;;;;5031717;28;20164;-76
2020/12/31 15:18:41;;;;;;;0.75;0.70;;;7.50;99.90;;;;;;5013806;28;20183;-76
2020/12/31 15:21:09;;;;;;;0.73;0.73;;;7.40;99.90;;;;;;5032145;28;20159;-76
2020/12/31 15:23:35;;;;;;;1.50;1.23;;;7.40;99.90;;;;;;5031496;28;20179;-75
2020/12/31 15:26:01;;;;;;;1.65;1.55;;;7.40;99.90;;;;;;5031588;28;20559;-76
2020/12/31 15:28:27;;;;;;;1.25;1.25;;;7.50;99.90;;;;;;5029718;28;20842;-76
2020/12/31 15:30:53;;;;;;;9.65;3.05;;;7.20;99.90;;;;;;5031407;28;20185;-75
2020/12/31 15:33:19;;;;;;;2.35;1.85;;;7.00;99.90;;;;;;5030788;28;20207;-77
2020/12/31 15:35:45;;;;;;;5.20;2.70;;;7.00;99.90;;;;;;5031109;28;20341;-76
2020/12/31 15:38:11;;;;;;;16.80;3.13;;;7.00;99.90;;;;;;5031535;28;20247;-76
2020/12/31 15:40:37;;;;;;;0.38;0.38;;;7.00;99.90;;;;;;5031272;28;20317;-77
2020/12/31 15:43:03;;;;;;;1.98;1.55;;;7.20;99.90;;;;;;5014278;28;20179;-75
2020/12/31 15:45:29;;;;;;;3.33;2.45;;;7.20;99.90;;;;;;5031226;28;20590;-84
2020/12/31 15:47:54;;;;;;;1.77;1.67;;;6.90;99.90;;;;;;5013786;28;20160;-76
2020/12/31 15:50:20;;;;;;;1.65;1.63;;;6.80;99.90;;;;;;5031625;28;20179;-76
2020/12/31 15:52:49;;;;;;;1.65;1.55;;;6.60;99.90;;;;;;5029554;28;20784;-74
2020/12/31 15:55:16;;;;;;;1.20;1.20;;;6.70;99.90;;;;;;5030312;28;20249;-76
2020/12/31 15:57:42;;;;;;;0.45;0.45;;;6.60;99.90;;;;;;5031678;28;20152;-75
2020/12/31 16:00:08;;;;;;;0.95;0.95;;;6.70;99.90;;;;;;5031139;28;20250;-76
2020/12/31 16:02:44;;;;;;;1.83;1.73;;;6.70;99.90;;;;;;5030668;28;20168;-76
2020/12/31 16:05:11;;;;;;;3.17;2.10;;;6.80;99.90;;;;;;5030662;28;20222;-74
2020/12/31 16:07:37;;;;;;;2.47;1.75;;;6.80;99.90;;;;;;5013736;28;20187;-76
2020/12/31 16:10:06;;;;;;;1.85;1.75;;;6.80;99.90;;;;;;5031064;28;20175;-75
2020/12/31 16:12:32;;;;;;;0.98;0.98;;;6.70;99.90;;;;;;5031289;28;20187;-75
2020/12/31 16:14:57;;;;;;;1.17;1.17;;;6.70;99.90;;;;;;5031183;28;20217;-75
2020/12/31 16:17:23;;;;;;;1.55;1.20;;;6.60;99.90;;;;;;5013404;28;20176;-75
2020/12/31 16:19:49;;;;;;;0.77;0.77;;;6.40;99.90;;;;;;5031025;28;20259;-76
2020/12/31 16:22:15;;;;;;;2.33;1.85;;;6.30;99.90;;;;;;5032038;28;20194;-76
2020/12/31 16:24:40;;;;;;;2.78;2.58;;;6.30;99.90;;;;;;5035197;28;20707;-75
2020/12/31 16:27:06;;;;;;;3.63;1.23;;;6.30;99.90;;;;;;5035006;28;20179;-75
2020/12/31 16:29:32;;;;;;;0.95;0.95;;;6.40;99.90;;;;;;5034570;28;20203;-75
2020/12/31 16:32:15;;;;;;;3.08;1.50;;;6.30;99.90;;;;;;5034445;28;20216;-75
2020/12/31 16:34:41;;;;;;;1.08;0.70;;;6.40;99.90;;;;;;5034625;28;20215;-75
2020/12/31 16:37:12;;;;;;;1.85;1.25;;;6.30;99.90;;;;;;5016974;28;20186;-76
2020/12/31 16:39:40;;;;;;;5.57;1.73;;;6.20;99.90;;;;;;5034148;28;20168;-75
2020/12/31 16:42:06;;;;;;;3.05;2.75;;;6.30;99.90;;;;;;5016562;28;20214;-75
2020/12/31 16:44:32;;;;;;;0.88;0.88;;;6.50;99.90;;;;;;5034433;28;20235;-75
2020/12/31 16:46:58;;;;;;;9.05;3.53;;;6.60;99.90;;;;;;5016757;28;20305;-76
2020/12/31 16:49:25;;;;;;;1.52;1.42;;;6.60;99.90;;;;;;5033974;28;20164;-75
2020/12/31 16:51:52;;;;;;;2.70;1.35;;;6.60;99.90;;;;;;5034617;28;20291;-75
2020/12/31 16:54:20;;;;;;;0.73;0.73;;;6.70;99.90;;;;;;5034232;28;20279;-75
2020/12/31 16:56:54;;;;;;;1.65;1.55;;;6.50;99.90;;;;;;5034129;28;20156;-75
2020/12/31 16:59:20;;;;;;;23.33;3.15;;;6.50;99.90;;;;;;5034219;28;20210;-75
2020/12/31 17:01:47;;;;;;;2.00;1.88;;;6.80;99.90;;;;;;5034445;28;20529;-76
2020/12/31 17:04:13;;;;;;;1.65;1.58;;;6.90;99.90;;;;;;5033974;28;20188;-76
2020/12/31 17:06:41;;;;;;;1.00;0.98;;;7.00;99.90;;;;;;5016388;28;20168;-76
2020/12/31 17:09:06;;;;;;;3.17;1.88;;;6.80;99.90;;;;;;5016170;28;20180;-76
2020/12/31 17:11:32;;;;;;;6.53;2.63;;;6.80;99.90;;;;;;5033912;28;20164;-76
2020/12/31 17:13:59;;;;;;;1.77;1.67;;;6.90;99.90;;;;;;5034135;28;20202;-75
2020/12/31 17:16:35;;;;;;;1.80;1.70;;;7.00;99.90;;;;;;5033960;28;20160;-77
2020/12/31 17:19:02;;;;;;;1.58;1.48;;;7.00;99.90;;;;;;5034491;28;20252;-75
2020/12/31 17:21:28;;;;;;;1.85;1.60;;;7.10;99.90;;;;;;5033926;28;20167;-76
2020/12/31 17:23:54;;;;;;;12.13;4.03;;;6.90;99.90;;;;;;5033642;28;20627;-77
2020/12/31 17:26:21;;;;;;;2.17;1.98;;;6.90;99.90;;;;;;5033836;28;20282;-78
2020/12/31 17:28:48;;;;;;;2.30;1.83;;;6.90;99.90;;;;;;5016309;28;20160;-77
2020/12/31 17:31:13;;;;;;;14.40;3.42;;;6.80;99.90;;;;;;5033589;28;20216;-80
2020/12/31 17:33:41;;;;;;;2.28;1.98;;;6.70;99.90;;;;;;5032264;28;20287;-81
2020/12/31 17:36:07;;;;;;;2.95;2.40;;;6.70;99.90;;;;;;5015952;28;20215;-77
2020/12/31 17:38:33;;;;;;;1.77;1.65;;;6.70;99.90;;;;;;5033252;28;20196;-77
2020/12/31 17:40:58;;;;;;;2.60;1.92;;;7.00;99.90;;;;;;5018031;28;20669;-77
2020/12/31 17:43:24;;;;;;;2.60;1.58;;;7.10;99.90;;;;;;5019460;28;20176;-78
2020/12/31 17:45:50;;;;;;;2.08;1.65;;;7.20;99.90;;;;;;5015821;28;20207;-76
2020/12/31 17:48:16;;;;;;;2.67;2.45;;;7.30;99.90;;;;;;5015265;28;20172;-76
2020/12/31 17:50:41;;;;;;;6.57;2.35;;;6.90;99.90;;;;;;5032744;28;20190;-76
2020/12/31 17:53:07;;;;;;;5.65;2.42;;;6.90;99.90;;;;;;5033465;28;20207;-75
2020/12/31 17:55:33;;;;;;;1.08;1.08;;;7.10;99.90;;;;;;5033504;28;20184;-75
2020/12/31 17:57:59;;;;;;;2.40;2.30;;;6.80;99.90;;;;;;5016168;28;20179;-75
2020/12/31 18:00:25;;;;;;;2.55;1.40;;;6.60;99.90;;;;;;5014891;28;20172;-75
2020/12/31 18:02:50;;;;;;;1.80;1.70;;;6.60;99.90;;;;;;5033346;28;20176;-75
2020/12/31 18:05:16;;;;;;;4.80;2.97;;;6.70;99.90;;;;;;5032954;28;20201;-75
2020/12/31 18:07:42;;;;;;;1.95;1.85;;;6.80;99.90;;;;;;5033679;28;20175;-77
2020/12/31 18:10:08;;;;;;;2.10;1.42;;;6.70;99.90;;;;;;5015499;28;20690;-75
2020/12/31 18:12:33;;;;;;;2.22;1.35;;;6.70;99.90;;;;;;5032889;28;20639;-75
2020/12/31 18:14:59;;;;;;;1.55;1.55;;;6.70;99.90;;;;;;5032988;28;20241;-75
2020/12/31 18:17:24;;;;;;;1.80;1.70;;;6.70;99.90;;;;;;5032768;28;20215;-75
2020/12/31 18:19:50;;;;;;;1.88;1.77;;;6.70;99.90;;;;;;5033132;28;20168;-77
2020/12/31 18:22:15;;;;;;;0.47;0.47;;;6.70;99.90;;;;;;5032973;28;20167;-75
2020/12/31 18:24:41;;;;;;;1.52;1.42;;;6.60;99.90;;;;;;5032720;28;20195;-76
2020/12/31 18:27:06;;;;;;;1.20;1.20;;;6.70;99.90;;;;;;5032884;28;20170;-76
2020/12/31 18:29:32;;;;;;;1.88;1.77;;;6.90;99.90;;;;;;5015176;28;20166;-76
2020/12/31 18:31:57;;;;;;;2.88;2.67;;;6.80;99.90;;;;;;5014334;28;20220;-76
2020/12/31 18:34:23;;;;;;;6.03;2.38;;;6.70;99.90;;;;;;5032520;28;20231;-76
2020/12/31 18:36:48;;;;;;;2.97;2.28;;;6.60;99.90;;;;;;5032980;28;20167;-76
2020/12/31 18:39:14;;;;;;;1.45;1.45;;;6.50;99.90;;;;;;5032710;28;20167;-76
2020/12/31 18:41:40;;;;;;;1.17;1.17;;;6.60;99.90;;;;;;5012253;28;20647;-76
2020/12/31 18:44:06;;;;;;;3.70;3.45;;;6.70;99.90;;;;;;5031716;28;20160;-76
2020/12/31 18:46:32;;;;;;;4.82;2.50;;;6.60;99.90;;;;;;5031014;28;20597;-77
2020/12/31 18:48:57;;;;;;;0.82;0.82;;;6.60;99.90;;;;;;5032000;28;20171;-76
2020/12/31 18:51:23;;;;;;;0.98;0.98;;;6.50;99.90;;;;;;5032453;28;20622;-77
2020/12/31 18:53:48;;;;;;;2.10;1.92;;;6.30;99.90;;;;;;5031195;28;20196;-77
2020/12/31 18:56:14;;;;;;;2.15;2.05;;;6.50;99.90;;;;;;5032386;28;20172;-77
2020/12/31 18:58:40;;;;;;;1.60;1.50;;;6.60;99.90;;;;;;5032507;28;20167;-77
2020/12/31 19:01:06;;;;;;;2.42;1.60;;;6.70;99.90;;;;;;5014482;28;20192;-78
2020/12/31 19:03:32;;;;;;;1.52;1.42;;;6.70;99.90;;;;;;5013944;28;20222;-76
2020/12/31 19:05:58;;;;;;;2.88;1.40;;;6.60;99.90;;;;;;5031979;28;20538;-76
2020/12/31 19:08:23;;;;;;;5.13;2.50;;;6.70;99.90;;;;;;5031810;28;20182;-73
2020/12/31 19:10:49;;;;;;;2.90;2.60;;;6.70;99.90;;;;;;5032494;28;20514;-77
2020/12/31 19:13:14;;;;;;;2.58;2.47;;;6.90;99.90;;;;;;5031053;28;20714;-76
2020/12/31 19:15:41;;;;;;;1.33;1.23;;;6.70;99.90;;;;;;5031949;28;20243;-77
2020/12/31 19:18:06;;;;;;;3.00;2.58;;;6.40;99.90;;;;;;5014287;28;20199;-83
2020/12/31 19:20:32;;;;;;;1.30;1.23;;;6.20;99.90;;;;;;5014881;28;20630;-84
2020/12/31 19:22:58;;;;;;;3.83;3.53;;;6.10;99.90;;;;;;5014105;28;20176;-77
2020/12/31 19:25:25;;;;;;;1.65;1.55;;;6.00;99.90;;;;;;5030486;28;20191;-82
2020/12/31 19:27:51;;;;;;;5.93;3.08;;;5.90;99.90;;;;;;5032292;28;20619;-81
2020/12/31 19:30:18;;;;;;;3.72;3.42;;;6.00;99.90;;;;;;5031430;28;20174;-82
2020/12/31 19:32:45;;;;;;;2.30;2.20;;;5.90;99.90;;;;;;5031348;28;20226;-82
2020/12/31 19:35:11;;;;;;;6.95;3.20;;;6.00;99.90;;;;;;5031695;28;20715;-84
2020/12/31 19:37:38;;;;;;;3.35;3.00;;;5.90;99.90;;;;;;5015048;28;20531;-83
2020/12/31 19:40:06;;;;;;;2.08;1.98;;;5.90;99.90;;;;;;5014531;28;20669;-76
2020/12/31 19:42:31;;;;;;;1.42;1.33;;;5.90;99.90;;;;;;5031068;28;20237;-76
2020/12/31 19:44:59;;;;;;;3.55;3.30;;;6.10;99.90;;;;;;5031357;28;20270;-76
2020/12/31 19:47:26;;;;;;;1.33;1.25;;;6.00;99.90;;;;;;5031827;28;20148;-76